createdAt,value
2023-03-26T00:01:33.944Z,4.53
2023-03-26T00:04:01.807Z,4.30
2023-03-26T00:06:31.884Z,4.20
2023-03-26T00:08:59.157Z,4.65
2023-03-26T00:11:28.588Z,4.55
2023-03-26T00:13:58.103Z,4.43
2023-03-26T00:16:28.484Z,3.92
2023-03-26T00:18:57.854Z,5.30
2023-03-26T00:21:28.389Z,4.65
2023-03-26T00:23:59.751Z,4.72
2023-03-26T00:26:29.739Z,4.03
2023-03-26T00:28:58.500Z,4.40
2023-03-26T00:31:26.154Z,4.22
2023-03-26T00:33:55.786Z,3.95
2023-03-26T00:36:25.843Z,4.07
2023-03-26T00:38:54.337Z,4.75
2023-03-26T00:41:26.126Z,4.45
2023-03-26T00:43:57.001Z,3.97
2023-03-26T00:46:25.776Z,3.90
2023-03-26T00:48:53.148Z,3.92
2023-03-26T00:51:21.696Z,3.83
2023-03-26T00:53:50.904Z,4.25
2023-03-26T00:56:19.133Z,4.40
2023-03-26T00:58:48.212Z,3.55
2023-03-26T01:01:19.115Z,3.78
2023-03-26T01:03:56.763Z,3.80
2023-03-26T01:06:36.657Z,4.30
2023-03-26T01:09:14.498Z,3.97
2023-03-26T01:11:42.392Z,3.70
2023-03-26T01:14:14.746Z,4.07
2023-03-26T01:16:50.217Z,4.55
2023-03-26T01:19:24.364Z,3.90
2023-03-26T01:21:52.326Z,4.05
2023-03-26T01:24:19.604Z,4.10
2023-03-26T01:26:54.955Z,4.45
2023-03-26T01:29:28.895Z,4.03
2023-03-26T01:32:05.788Z,4.38
2023-03-26T01:34:49.766Z,4.65
2023-03-26T01:39:53.884Z,4.50
2023-03-26T01:42:29.449Z,3.72
2023-03-26T01:45:03.514Z,4.35
2023-03-26T01:47:32.387Z,4.32
2023-03-26T01:49:59.534Z,4.40
2023-03-26T01:52:27.673Z,5.00
2023-03-26T01:54:55.994Z,5.38
2023-03-26T01:57:30.304Z,4.13
2023-03-26T02:00:21.026Z,4.60
2023-03-26T02:02:52.324Z,4.57
2023-03-26T02:05:26.262Z,4.78
2023-03-26T02:08:02.268Z,4.93
2023-03-26T02:10:33.923Z,5.55
2023-03-26T02:13:01.495Z,5.00
2023-03-26T02:15:28.752Z,5.32
2023-03-26T02:17:56.179Z,4.93
2023-03-26T02:20:23.430Z,5.45
2023-03-26T02:22:50.689Z,4.65
2023-03-26T02:25:21.805Z,5.25
2023-03-26T02:27:52.904Z,6.30
2023-03-26T02:30:25.919Z,5.47
2023-03-26T02:32:59.606Z,5.70
2023-03-26T02:35:34.369Z,5.53
2023-03-26T02:38:03.017Z,5.03
2023-03-26T02:40:30.258Z,5.78
2023-03-26T02:42:58.872Z,4.60
2023-03-26T02:45:27.347Z,5.57
2023-03-26T02:48:15.486Z,6.03
2023-03-26T02:50:46.220Z,5.68
2023-03-26T02:53:15.381Z,5.55
2023-03-26T02:55:46.589Z,5.80
2023-03-26T02:58:17.393Z,6.18
2023-03-26T03:00:47.261Z,5.95
2023-03-26T03:03:28.308Z,5.70
2023-03-26T03:05:58.158Z,5.18
2023-03-26T03:08:31.558Z,6.22
2023-03-26T03:11:16.408Z,5.72
2023-03-26T03:13:46.712Z,6.63
2023-03-26T03:16:20.144Z,6.05
2023-03-26T03:18:54.944Z,5.55
2023-03-26T03:21:27.101Z,6.28
2023-03-26T03:23:56.105Z,6.32
2023-03-26T03:26:30.171Z,6.03
2023-03-26T03:29:01.504Z,6.22
2023-03-26T03:31:29.195Z,6.90
2023-03-26T03:34:02.933Z,5.80
2023-03-26T03:36:33.913Z,5.43
2023-03-26T03:39:07.744Z,5.82
2023-03-26T03:41:36.713Z,6.28
2023-03-26T03:44:06.684Z,5.70
2023-03-26T03:46:34.624Z,6.30
2023-03-26T03:49:02.367Z,5.70
2023-03-26T03:51:35.326Z,6.65
2023-03-26T03:54:05.937Z,6.75
2023-03-26T03:56:53.218Z,6.28
2023-03-26T03:59:35.960Z,5.78
2023-03-26T04:02:06.372Z,5.45
2023-03-26T04:04:40.625Z,4.90
2023-03-26T04:07:09.847Z,5.55
2023-03-26T04:09:56.180Z,5.15
2023-03-26T04:12:25.062Z,5.22
2023-03-26T04:14:59.230Z,5.78
2023-03-26T04:17:27.430Z,6.53
2023-03-26T04:19:56.564Z,7.28
2023-03-26T04:22:34.769Z,6.53
2023-03-26T04:25:05.408Z,7.13
2023-03-26T04:27:44.296Z,6.63
2023-03-26T04:32:58.650Z,7.25
2023-03-26T04:35:34.588Z,6.55
2023-03-26T04:38:06.600Z,6.57
2023-03-26T04:40:39.198Z,5.82
2023-03-26T04:43:12.413Z,5.85
2023-03-26T04:46:02.960Z,6.28
2023-03-26T04:48:33.133Z,6.28
2023-03-26T04:51:01.372Z,6.80
2023-03-26T04:53:28.941Z,6.70
2023-03-26T04:56:03.821Z,6.35
2023-03-26T04:58:51.939Z,5.95
2023-03-26T05:01:21.716Z,5.93
2023-03-26T05:03:49.114Z,6.72
2023-03-26T05:06:17.902Z,6.18
2023-03-26T05:08:46.585Z,6.22
2023-03-26T05:11:28.316Z,6.05
2023-03-26T05:13:57.555Z,5.78
2023-03-26T05:16:25.267Z,6.57
2023-03-26T05:18:58.303Z,6.05
2023-03-26T05:21:31.174Z,5.67
2023-03-26T05:23:58.635Z,6.45
2023-03-26T05:26:26.340Z,6.15
2023-03-26T05:28:53.748Z,6.32
2023-03-26T05:31:27.375Z,6.13
2023-03-26T05:33:58.238Z,6.72
2023-03-26T05:36:26.309Z,5.53
2023-03-26T05:39:05.038Z,6.30
2023-03-26T05:41:33.914Z,6.18
2023-03-26T05:44:01.295Z,6.47
2023-03-26T05:46:31.630Z,6.70
2023-03-26T05:48:59.831Z,7.40
2023-03-26T05:51:33.573Z,4.85
2023-03-26T05:54:19.103Z,4.32
2023-03-26T05:56:48.000Z,4.03
2023-03-26T05:59:16.713Z,3.88
2023-03-26T06:01:45.673Z,3.67
2023-03-26T06:04:32.958Z,3.40
2023-03-26T06:07:02.330Z,3.58
2023-03-26T06:09:29.700Z,3.60
2023-03-26T06:11:57.051Z,4.80
2023-03-26T06:14:24.258Z,4.68
2023-03-26T06:16:53.089Z,4.90
2023-03-26T06:19:21.990Z,5.85
2023-03-26T06:21:56.020Z,6.25
2023-03-26T06:24:28.674Z,7.72
2023-03-26T06:27:15.800Z,6.15
2023-03-26T06:29:44.661Z,5.88
2023-03-26T06:32:20.346Z,6.18
2023-03-26T06:34:53.242Z,6.18
2023-03-26T06:37:20.637Z,7.82
2023-03-26T06:39:49.714Z,6.50
2023-03-26T06:42:20.191Z,6.93
2023-03-26T06:44:49.022Z,7.28
2023-03-26T06:47:17.730Z,5.90
2023-03-26T06:49:46.523Z,6.88
2023-03-26T06:52:34.104Z,6.63
2023-03-26T06:55:10.543Z,5.28
2023-03-26T06:57:39.664Z,4.03
2023-03-26T07:00:09.344Z,3.72
2023-03-26T07:02:38.379Z,4.47
2023-03-26T07:05:07.655Z,4.70
2023-03-26T07:07:45.978Z,5.63
2023-03-26T07:10:15.877Z,6.05
2023-03-26T07:12:53.810Z,5.15
2023-03-26T07:15:22.812Z,6.15
2023-03-26T07:17:51.942Z,5.85
2023-03-26T07:22:49.210Z,6.40
2023-03-26T07:25:31.361Z,5.22
2023-03-26T07:28:09.058Z,6.65
2023-03-26T07:30:47.053Z,6.40
2023-03-26T07:33:27.248Z,5.82
2023-03-26T07:36:06.278Z,6.85
2023-03-26T07:38:46.452Z,6.43
2023-03-26T07:41:46.340Z,6.55
2023-03-26T07:44:36.879Z,6.07
2023-03-26T07:47:30.007Z,6.80
2023-03-26T07:50:21.529Z,6.35
2023-03-26T07:52:50.810Z,6.75
2023-03-26T07:55:50.513Z,6.65
2023-03-26T07:58:22.559Z,7.80
2023-03-26T08:00:58.902Z,8.23
2023-03-26T08:03:39.289Z,8.43
2023-03-26T08:06:34.473Z,6.60
2023-03-26T08:09:17.021Z,6.82
2023-03-26T08:11:53.683Z,7.47
2023-03-26T08:14:33.910Z,7.18
2023-03-26T08:17:26.321Z,6.97
2023-03-26T08:20:17.296Z,6.85
2023-03-26T08:22:50.992Z,4.63
2023-03-26T08:25:23.469Z,4.15
2023-03-26T08:28:04.379Z,3.53
2023-03-26T08:30:31.848Z,5.07
2023-03-26T08:33:05.321Z,5.35
2023-03-26T08:35:35.246Z,4.18
2023-03-26T08:38:02.568Z,4.53
2023-03-26T08:41:02.614Z,4.05
2023-03-26T08:43:38.674Z,5.13
2023-03-26T08:46:09.043Z,5.32
2023-03-26T08:49:10.047Z,5.47
2023-03-26T08:51:58.864Z,4.88
2023-03-26T08:54:29.615Z,5.53
2023-03-26T08:57:11.612Z,5.50
2023-03-26T08:59:53.572Z,6.15
2023-03-26T09:02:39.963Z,5.68
2023-03-26T09:05:20.449Z,6.20
2023-03-26T09:08:00.351Z,6.25
2023-03-26T09:10:31.399Z,7.22
2023-03-26T09:13:36.260Z,5.70
2023-03-26T09:16:22.631Z,5.07
2023-03-26T09:19:07.282Z,6.28
2023-03-26T09:21:38.100Z,6.00
2023-03-26T09:24:16.813Z,5.55
2023-03-26T09:27:05.521Z,5.80
2023-03-26T09:29:36.213Z,5.90
2023-03-26T09:32:16.022Z,5.38
2023-03-26T09:35:13.256Z,5.13
2023-03-26T09:37:56.879Z,4.85
2023-03-26T09:40:37.098Z,4.75
2023-03-26T09:43:35.105Z,4.65
2023-03-26T09:46:29.205Z,4.57
2023-03-26T09:49:04.326Z,4.82
2023-03-26T09:51:46.757Z,5.28
2023-03-26T09:54:18.226Z,5.05
2023-03-26T09:56:59.553Z,5.80
2023-03-26T09:59:55.718Z,4.53
2023-03-26T10:02:46.772Z,4.72
2023-03-26T10:05:18.312Z,4.75
2023-03-26T10:08:01.620Z,5.00
2023-03-26T10:10:36.633Z,4.90
2023-03-26T10:13:23.834Z,5.72
2023-03-26T10:15:54.661Z,5.30
2023-03-26T10:18:30.028Z,5.72
2023-03-26T10:21:07.055Z,5.07
2023-03-26T10:23:37.513Z,5.25
2023-03-26T10:26:19.887Z,6.53
2023-03-26T10:29:00.264Z,6.22
2023-03-26T10:31:37.151Z,5.25
2023-03-26T10:34:08.150Z,5.60
2023-03-26T10:36:55.629Z,5.88
2023-03-26T10:39:37.029Z,5.85
2023-03-26T10:42:16.426Z,5.80
2023-03-26T10:44:53.769Z,5.63
2023-03-26T10:47:40.421Z,5.45
2023-03-26T10:50:11.112Z,3.22
2023-03-26T10:52:46.203Z,3.88
2023-03-26T10:55:19.241Z,4.28
2023-03-26T10:57:52.888Z,3.35
2023-03-26T11:00:24.755Z,3.70
2023-03-26T11:03:31.809Z,3.13
2023-03-26T11:06:09.407Z,3.90
2023-03-26T11:08:45.072Z,3.47
2023-03-26T11:11:18.592Z,5.20
2023-03-26T11:13:54.470Z,4.03
2023-03-26T11:16:33.154Z,3.70
2023-03-26T11:19:11.743Z,3.60
2023-03-26T11:21:50.753Z,3.15
2023-03-26T11:24:46.534Z,3.60
2023-03-26T11:27:27.521Z,3.65
2023-03-26T11:30:03.594Z,4.13
2023-03-26T11:32:42.468Z,3.60
2023-03-26T11:35:17.570Z,3.58
2023-03-26T11:38:12.348Z,3.03
2023-03-26T11:40:42.864Z,3.05
2023-03-26T11:43:23.088Z,3.20
2023-03-26T11:45:51.937Z,3.45
2023-03-26T11:48:26.537Z,3.85
2023-03-26T11:51:02.618Z,3.50
2023-03-26T11:53:34.726Z,3.50
2023-03-26T11:56:14.968Z,3.15
2023-03-26T11:58:52.260Z,3.67
2023-03-26T12:01:30.453Z,4.13
2023-03-26T12:04:04.403Z,3.67
2023-03-26T12:06:33.080Z,3.95
2023-03-26T12:09:00.329Z,3.63
2023-03-26T12:11:34.622Z,3.95
2023-03-26T12:14:05.118Z,3.22
2023-03-26T12:16:32.415Z,3.47
2023-03-26T12:19:05.568Z,2.97
2023-03-26T12:21:44.158Z,3.47
2023-03-26T12:24:29.409Z,3.45
2023-03-26T12:27:02.770Z,3.75
2023-03-26T12:29:34.503Z,4.18
2023-03-26T12:32:06.101Z,4.47
2023-03-26T12:34:36.345Z,4.93
2023-03-26T12:37:06.167Z,3.92
2023-03-26T12:40:07.500Z,4.00
2023-03-26T12:44:55.268Z,4.32
2023-03-26T12:45:23.835Z,3.83
2023-03-26T12:47:58.828Z,3.63
2023-03-26T12:50:40.878Z,4.05
2023-03-26T12:53:17.978Z,3.67
2023-03-26T12:55:56.629Z,4.25
2023-03-26T12:58:27.100Z,4.82
2023-03-26T13:01:22.692Z,5.13
2023-03-26T13:04:01.772Z,4.65
2023-03-26T13:06:59.402Z,4.25
2023-03-26T13:09:37.936Z,4.80
2023-03-26T13:12:19.297Z,4.50
2023-03-26T13:14:55.842Z,4.70
2023-03-26T13:17:37.205Z,4.15
2023-03-26T13:20:13.462Z,4.50
2023-03-26T13:22:48.560Z,4.28
2023-03-26T13:25:22.064Z,4.45
2023-03-26T13:27:58.639Z,4.38
2023-03-26T13:30:38.305Z,3.90
2023-03-26T13:33:19.857Z,3.63
2023-03-26T13:36:10.252Z,4.95
2023-03-26T13:38:58.808Z,5.40
2023-03-26T13:41:36.650Z,6.88
2023-03-26T13:44:11.858Z,6.90
2023-03-26T13:46:44.811Z,7.70
2023-03-26T13:49:15.798Z,7.10
2023-03-26T13:51:50.412Z,6.30
2023-03-26T13:54:27.800Z,6.15
2023-03-26T13:57:07.641Z,6.10
2023-03-26T13:59:43.814Z,6.20
2023-03-26T14:02:20.454Z,6.78
2023-03-26T14:04:54.442Z,6.82
2023-03-26T14:07:26.578Z,7.55
2023-03-26T14:10:00.491Z,11.05
2023-03-26T14:12:34.199Z,7.78
2023-03-26T14:17:41.614Z,7.72
2023-03-26T14:20:24.176Z,7.88
2023-03-26T14:23:06.843Z,7.38
2023-03-26T14:25:37.807Z,7.72
2023-03-26T14:28:22.006Z,6.65
2023-03-26T14:30:54.608Z,6.90
2023-03-26T14:33:30.377Z,6.70
2023-03-26T14:36:01.559Z,5.82
2023-03-26T14:38:37.185Z,5.57
2023-03-26T14:41:16.406Z,6.03
2023-03-26T14:43:47.250Z,4.45
2023-03-26T14:46:34.184Z,4.65
2023-03-26T14:49:08.799Z,4.55
2023-03-26T14:51:50.398Z,4.35
2023-03-26T14:54:23.645Z,4.28
2023-03-26T14:57:07.906Z,4.65
2023-03-26T14:59:38.667Z,4.32
2023-03-26T15:02:27.712Z,4.43
2023-03-26T15:05:16.779Z,4.75
2023-03-26T15:08:05.838Z,4.13
2023-03-26T15:10:36.374Z,4.55
2023-03-26T15:13:10.826Z,5.00
2023-03-26T15:15:53.891Z,5.43
2023-03-26T15:20:54.343Z,4.40
2023-03-26T15:23:53.450Z,4.40
2023-03-26T15:26:48.671Z,5.00
2023-03-26T15:29:28.244Z,5.30
2023-03-26T15:32:03.286Z,4.25
2023-03-26T15:34:42.492Z,4.35
2023-03-26T15:37:23.200Z,4.82
2023-03-26T15:40:17.901Z,3.75
2023-03-26T15:42:51.586Z,3.97
2023-03-26T15:45:22.704Z,4.72
2023-03-26T15:47:54.251Z,4.47
2023-03-26T15:50:28.800Z,3.63
2023-03-26T15:53:07.659Z,3.47
2023-03-26T15:55:46.131Z,3.65
2023-03-26T15:58:21.539Z,3.85
2023-03-26T16:01:03.187Z,3.50
2023-03-26T16:03:39.616Z,3.53
2023-03-26T16:06:10.111Z,3.20
2023-03-26T16:08:47.272Z,3.55
2023-03-26T16:11:15.603Z,3.72
2023-03-26T16:13:49.918Z,3.33
2023-03-26T16:16:22.848Z,3.78
2023-03-26T16:18:58.478Z,4.40
2023-03-26T16:21:45.956Z,3.70
2023-03-26T16:24:21.827Z,3.60
2023-03-26T16:26:59.800Z,3.33
2023-03-26T16:29:30.190Z,3.63
2023-03-26T16:32:01.710Z,3.95
2023-03-26T16:34:39.326Z,4.00
2023-03-26T16:37:28.140Z,3.58
2023-03-26T16:40:16.730Z,3.65
2023-03-26T16:42:55.164Z,4.10
2023-03-26T16:45:32.091Z,3.08
2023-03-26T16:48:17.289Z,3.55
2023-03-26T16:50:55.059Z,3.90
2023-03-26T16:53:33.366Z,3.20
2023-03-26T16:56:11.970Z,3.58
2023-03-26T16:58:40.965Z,3.20
2023-03-26T17:01:16.152Z,2.80
2023-03-26T17:04:02.660Z,3.22
2023-03-26T17:06:38.820Z,3.55
2023-03-26T17:09:34.700Z,3.20
2023-03-26T17:12:14.324Z,4.13
2023-03-26T17:14:59.700Z,3.95
2023-03-26T17:17:41.556Z,3.97
2023-03-26T17:20:18.786Z,3.60
2023-03-26T17:22:52.332Z,3.60
2023-03-26T17:25:31.008Z,3.20
2023-03-26T17:28:28.671Z,3.60
2023-03-26T17:31:02.471Z,3.85
2023-03-26T17:36:02.052Z,3.28
2023-03-26T17:39:09.110Z,3.60
2023-03-26T17:41:39.320Z,4.40
2023-03-26T17:44:28.041Z,4.40
2023-03-26T17:46:57.094Z,3.67
2023-03-26T17:49:31.250Z,4.43
2023-03-26T17:52:03.970Z,3.70
2023-03-26T17:54:34.829Z,4.10
2023-03-26T17:57:07.176Z,3.90
2023-03-26T17:59:38.693Z,3.20
2023-03-26T18:02:15.677Z,4.22
2023-03-26T18:04:48.022Z,3.63
2023-03-26T18:07:36.873Z,3.90
2023-03-26T18:10:33.522Z,3.85
2023-03-26T18:13:08.732Z,3.33
2023-03-26T18:15:48.406Z,3.40
2023-03-26T18:18:22.613Z,3.60
2023-03-26T18:20:51.542Z,4.22
2023-03-26T18:23:25.992Z,3.80
2023-03-26T18:25:58.408Z,3.58
2023-03-26T18:28:29.025Z,4.20
2023-03-26T18:31:06.844Z,4.72
2023-03-26T18:33:43.849Z,4.07
2023-03-26T18:36:12.461Z,3.30
2023-03-26T18:38:42.422Z,3.92
2023-03-26T18:41:22.781Z,4.00
2023-03-26T18:43:50.278Z,4.35
2023-03-26T18:46:17.502Z,3.67
2023-03-26T18:48:46.360Z,5.03
2023-03-26T18:51:16.189Z,3.67
2023-03-26T18:53:52.283Z,4.32
2023-03-26T18:56:23.248Z,4.00
2023-03-26T18:58:51.690Z,4.47
2023-03-26T19:01:25.823Z,4.28
2023-03-26T19:03:54.372Z,4.57
2023-03-26T19:06:23.488Z,4.22
2023-03-26T19:08:52.420Z,4.78
2023-03-26T19:11:19.731Z,4.18
2023-03-26T19:13:59.786Z,4.57
2023-03-26T19:16:33.860Z,5.22
2023-03-26T19:19:05.490Z,4.55
2023-03-26T19:21:34.679Z,5.20
2023-03-26T19:24:03.936Z,4.85
2023-03-26T19:26:31.892Z,4.47
2023-03-26T19:29:00.788Z,4.38
2023-03-26T19:31:36.267Z,3.92
2023-03-26T19:34:24.069Z,4.82
2023-03-26T19:36:57.387Z,4.35
2023-03-26T19:39:37.127Z,4.90
2023-03-26T19:42:06.669Z,4.95
2023-03-26T19:44:39.730Z,4.63
2023-03-26T19:47:16.253Z,4.45
2023-03-26T19:49:53.356Z,4.35
2023-03-26T19:52:25.490Z,4.75
2023-03-26T19:54:59.660Z,4.70
2023-03-26T19:57:31.005Z,4.00
2023-03-26T19:59:59.065Z,4.35
2023-03-26T20:02:27.187Z,4.80
2023-03-26T20:04:54.671Z,4.25
2023-03-26T20:07:35.787Z,3.67
2023-03-26T20:10:05.801Z,3.95
2023-03-26T20:12:33.637Z,4.22
2023-03-26T20:15:02.240Z,3.97
2023-03-26T20:17:31.126Z,5.10
2023-03-26T20:19:59.090Z,4.45
2023-03-26T20:22:26.947Z,5.05
2023-03-26T20:24:54.902Z,4.18
2023-03-26T20:27:22.614Z,4.30
2023-03-26T20:29:49.857Z,5.05
2023-03-26T20:32:23.732Z,5.22
2023-03-26T20:34:53.182Z,4.95
2023-03-26T20:37:20.282Z,5.00
2023-03-26T20:39:47.466Z,4.93
2023-03-26T20:42:15.998Z,5.40
2023-03-26T20:44:43.717Z,4.93
2023-03-26T20:47:11.728Z,5.10
2023-03-26T20:49:39.061Z,5.43
2023-03-26T20:52:06.319Z,5.28
2023-03-26T20:54:33.672Z,5.55
2023-03-26T20:57:02.437Z,6.00
2023-03-26T20:59:30.412Z,4.53
2023-03-26T21:01:59.632Z,5.53
2023-03-26T21:04:27.841Z,5.22
2023-03-26T21:07:06.698Z,6.00
2023-03-26T21:09:39.513Z,5.85
2023-03-26T21:12:09.703Z,5.75
2023-03-26T21:14:41.430Z,5.63
2023-03-26T21:17:16.300Z,5.90
2023-03-26T21:19:44.316Z,6.22
2023-03-26T21:22:14.767Z,5.55
2023-03-26T21:24:49.935Z,5.93
2023-03-26T21:27:26.461Z,5.60
2023-03-26T21:29:55.587Z,5.20
2023-03-26T21:32:23.159Z,6.25
2023-03-26T21:34:58.571Z,5.50
2023-03-26T21:37:27.766Z,6.80
2023-03-26T21:39:55.160Z,6.35
2023-03-26T21:42:26.874Z,6.10
2023-03-26T21:44:54.660Z,6.93
2023-03-26T21:47:22.091Z,6.05
2023-03-26T21:49:49.717Z,6.85
2023-03-26T21:52:17.130Z,6.70
2023-03-26T21:54:44.840Z,7.38
2023-03-26T21:57:15.128Z,6.78
2023-03-26T22:00:08.409Z,6.30
2023-03-26T22:02:54.692Z,6.47
2023-03-26T22:05:31.261Z,6.78
2023-03-26T22:08:02.194Z,6.25
2023-03-26T22:10:31.000Z,6.13
2023-03-26T22:12:59.554Z,6.15
2023-03-26T22:15:30.585Z,5.80
2023-03-26T22:18:01.104Z,6.70
2023-03-26T22:20:28.533Z,6.53
2023-03-26T22:22:55.998Z,7.55
2023-03-26T22:25:24.473Z,7.80
2023-03-26T22:27:52.115Z,7.65
2023-03-26T22:30:21.044Z,6.80
2023-03-26T22:32:48.953Z,6.47
2023-03-26T22:35:16.734Z,7.22
2023-03-26T22:37:43.978Z,6.55
2023-03-26T22:40:14.023Z,7.20
2023-03-26T22:42:42.041Z,6.57
2023-03-26T22:45:10.273Z,5.28
2023-03-26T22:47:38.515Z,5.88
2023-03-26T22:50:08.125Z,5.35
2023-03-26T22:52:36.929Z,6.15
2023-03-26T22:55:05.510Z,6.15
2023-03-26T22:57:32.820Z,5.45
2023-03-26T23:00:12.325Z,5.15
2023-03-26T23:02:40.624Z,6.32
2023-03-26T23:05:08.236Z,5.97
2023-03-26T23:07:35.495Z,5.28
2023-03-26T23:10:02.672Z,5.40
2023-03-26T23:12:29.986Z,5.63
2023-03-26T23:14:58.011Z,5.60
2023-03-26T23:17:25.321Z,4.93
2023-03-26T23:19:52.464Z,4.97
2023-03-26T23:22:19.852Z,4.40
2023-03-26T23:24:46.993Z,4.68
2023-03-26T23:27:14.225Z,4.55
2023-03-26T23:29:42.653Z,5.00
2023-03-26T23:32:23.476Z,4.68
2023-03-26T23:34:52.675Z,4.10
2023-03-26T23:37:23.444Z,4.60
2023-03-26T23:39:52.051Z,4.50
2023-03-26T23:42:29.242Z,4.47
2023-03-26T23:44:57.732Z,4.72
2023-03-26T23:47:25.031Z,4.50
2023-03-26T23:49:52.314Z,4.40
2023-03-26T23:52:19.482Z,4.00
2023-03-26T23:54:47.470Z,4.03
2023-03-26T23:57:14.741Z,4.88
2023-03-26T23:59:42.034Z,5.15
